sensor_id;sensor_type;location;lat;lon;timestamp;pressure;altitude;pressure_sealevel;temperature;humidity
57779;BME280;43608;49.486;9.640;2022-12-18T00:00:29;100007.88;;;-13.23;75.54
57779;BME280;43608;49.486;9.640;2022-12-18T00:01:00;100009.59;;;-13.31;75.50
57779;BME280;43608;49.486;9.640;2022-12-18T00:01:34;100018.00;;;-13.16;75.38
57779;BME280;43608;49.486;9.640;2022-12-18T00:02:05;99997.16;;;-13.28;75.61
57779;BME280;43608;49.486;9.640;2022-12-18T00:02:35;100004.97;;;-13.26;75.72
57779;BME280;43608;49.486;9.640;2022-12-18T00:03:05;100024.59;;;-13.18;75.28
57779;BME280;43608;49.486;9.640;2022-12-18T00:03:36;99996.69;;;-13.33;75.57
57779;BME280;43608;49.486;9.640;2022-12-18T00:04:12;100024.44;;;-13.20;75.42
57779;BME280;43608;49.486;9.640;2022-12-18T00:04:45;100005.75;;;-13.27;75.38
57779;BME280;43608;49.486;9.640;2022-12-18T00:05:15;100022.09;;;-13.25;74.61
57779;BME280;43608;49.486;9.640;2022-12-18T00:05:47;100033.56;;;-13.22;75.51
57779;BME280;43608;49.486;9.640;2022-12-18T00:06:18;100022.25;;;-13.24;75.20
57779;BME280;43608;49.486;9.640;2022-12-18T00:06:49;100027.03;;;-13.27;75.28
57779;BME280;43608;49.486;9.640;2022-12-18T00:07:20;100031.25;;;-13.27;75.40
57779;BME280;43608;49.486;9.640;2022-12-18T00:07:50;100005.50;;;-13.38;75.28
57779;BME280;43608;49.486;9.640;2022-12-18T00:08:20;100008.94;;;-13.37;75.47
57779;BME280;43608;49.486;9.640;2022-12-18T00:08:51;100012.22;;;-13.38;75.46
57779;BME280;43608;49.486;9.640;2022-12-18T00:09:22;100022.34;;;-13.31;76.01
57779;BME280;43608;49.486;9.640;2022-12-18T00:09:52;100000.03;;;-13.41;75.80
57779;BME280;43608;49.486;9.640;2022-12-18T00:10:22;100010.41;;;-13.39;76.08
57779;BME280;43608;49.486;9.640;2022-12-18T00:10:53;100036.50;;;-13.26;75.73
57779;BME280;43608;49.486;9.640;2022-12-18T00:11:26;99996.47;;;-13.50;75.87
57779;BME280;43608;49.486;9.640;2022-12-18T00:11:57;100035.44;;;-13.28;75.79
57779;BME280;43608;49.486;9.640;2022-12-18T00:12:27;100016.44;;;-13.39;75.89
57779;BME280;43608;49.486;9.640;2022-12-18T00:12:57;100002.25;;;-13.44;75.65
57779;BME280;43608;49.486;9.640;2022-12-18T00:13:28;99937.91;;;-13.81;75.46
57779;BME280;43608;49.486;9.640;2022-12-18T00:13:59;99995.75;;;-13.49;75.88
57779;BME280;43608;49.486;9.640;2022-12-18T00:14:29;99989.38;;;-13.53;75.67
57779;BME280;43608;49.486;9.640;2022-12-18T00:15:00;100020.97;;;-13.36;75.88
57779;BME280;43608;49.486;9.640;2022-12-18T00:15:30;100015.69;;;-13.38;75.69
57779;BME280;43608;49.486;9.640;2022-12-18T00:16:12;100035.84;;;-13.32;75.93
57779;BME280;43608;49.486;9.640;2022-12-18T00:16:44;100027.09;;;-13.34;76.03
57779;BME280;43608;49.486;9.640;2022-12-18T00:17:15;100024.75;;;-13.33;75.35
57779;BME280;43608;49.486;9.640;2022-12-18T00:17:45;100028.91;;;-13.33;75.42
57779;BME280;43608;49.486;9.640;2022-12-18T00:18:15;99986.69;;;-13.54;75.49
57779;BME280;43608;49.486;9.640;2022-12-18T00:18:47;100007.19;;;-13.46;75.36
57779;BME280;43608;49.486;9.640;2022-12-18T00:19:17;100012.63;;;-13.42;75.52
57779;BME280;43608;49.486;9.640;2022-12-18T00:19:48;100018.06;;;-13.39;75.78
57779;BME280;43608;49.486;9.640;2022-12-18T00:20:18;100002.66;;;-13.48;75.55
57779;BME280;43608;49.486;9.640;2022-12-18T00:20:58;100014.28;;;-13.43;75.88
57779;BME280;43608;49.486;9.640;2022-12-18T00:21:30;100031.00;;;-13.38;75.33
57779;BME280;43608;49.486;9.640;2022-12-18T00:22:01;99991.09;;;-13.60;75.51
57779;BME280;43608;49.486;9.640;2022-12-18T00:22:31;100003.44;;;-13.56;75.29
57779;BME280;43608;49.486;9.640;2022-12-18T00:23:02;100023.56;;;-13.43;75.67
57779;BME280;43608;49.486;9.640;2022-12-18T00:23:33;100025.94;;;-13.45;75.69
57779;BME280;43608;49.486;9.640;2022-12-18T00:24:04;99995.28;;;-13.61;75.94
57779;BME280;43608;49.486;9.640;2022-12-18T00:24:35;100007.97;;;-13.54;75.68
57779;BME280;43608;49.486;9.640;2022-12-18T00:25:05;100024.13;;;-13.46;76.10
57779;BME280;43608;49.486;9.640;2022-12-18T00:25:36;100037.25;;;-13.43;76.03
57779;BME280;43608;49.486;9.640;2022-12-18T00:26:12;100035.91;;;-13.39;75.64
57779;BME280;43608;49.486;9.640;2022-12-18T00:26:43;100021.56;;;-13.46;75.90
57779;BME280;43608;49.486;9.640;2022-12-18T00:27:13;100004.94;;;-13.58;75.84
57779;BME280;43608;49.486;9.640;2022-12-18T00:27:44;100015.97;;;-13.51;75.80
57779;BME280;43608;49.486;9.640;2022-12-18T00:28:14;100032.13;;;-13.43;76.05
57779;BME280;43608;49.486;9.640;2022-12-18T00:28:45;100039.94;;;-13.41;76.06
57779;BME280;43608;49.486;9.640;2022-12-18T00:29:15;100037.03;;;-13.44;75.97
57779;BME280;43608;49.486;9.640;2022-12-18T00:29:45;100020.00;;;-13.53;75.65
57779;BME280;43608;49.486;9.640;2022-12-18T00:30:16;100031.63;;;-13.48;75.66
57779;BME280;43608;49.486;9.640;2022-12-18T00:30:46;100042.13;;;-13.44;75.95
57779;BME280;43608;49.486;9.640;2022-12-18T00:31:22;100032.34;;;-13.49;76.10
57779;BME280;43608;49.486;9.640;2022-12-18T00:31:53;100038.94;;;-13.51;76.09
57779;BME280;43608;49.486;9.640;2022-12-18T00:32:23;100030.75;;;-13.55;75.86
57779;BME280;43608;49.486;9.640;2022-12-18T00:32:53;100033.16;;;-13.57;76.13
57779;BME280;43608;49.486;9.640;2022-12-18T00:33:24;100026.38;;;-13.56;75.82
57779;BME280;43608;49.486;9.640;2022-12-18T00:33:55;100054.91;;;-13.44;75.56
57779;BME280;43608;49.486;9.640;2022-12-18T00:34:26;100028.94;;;-13.56;75.59
57779;BME280;43608;49.486;9.640;2022-12-18T00:34:56;100047.47;;;-13.50;75.44
57779;BME280;43608;49.486;9.640;2022-12-18T00:35:27;100038.56;;;-13.54;75.73
57779;BME280;43608;49.486;9.640;2022-12-18T00:36:04;100056.38;;;-13.47;76.03
57779;BME280;43608;49.486;9.640;2022-12-18T00:36:35;100045.00;;;-13.57;75.44
57779;BME280;43608;49.486;9.640;2022-12-18T00:37:05;100017.03;;;-13.72;75.88
57779;BME280;43608;49.486;9.640;2022-12-18T00:37:36;100025.03;;;-13.69;75.78
57779;BME280;43608;49.486;9.640;2022-12-18T00:38:06;100042.66;;;-13.63;75.54
57779;BME280;43608;49.486;9.640;2022-12-18T00:38:37;100051.00;;;-13.57;75.70
57779;BME280;43608;49.486;9.640;2022-12-18T00:39:09;100052.97;;;-13.54;75.49
57779;BME280;43608;49.486;9.640;2022-12-18T00:39:39;100052.09;;;-13.55;75.62
57779;BME280;43608;49.486;9.640;2022-12-18T00:40:10;100067.88;;;-13.50;75.72
57779;BME280;43608;49.486;9.640;2022-12-18T00:40:41;100039.94;;;-13.65;75.88
57779;BME280;43608;49.486;9.640;2022-12-18T00:41:13;100028.72;;;-13.74;76.27
57779;BME280;43608;49.486;9.640;2022-12-18T00:41:44;100061.53;;;-13.54;76.27
57779;BME280;43608;49.486;9.640;2022-12-18T00:42:33;100044.47;;;-13.62;75.71
57779;BME280;43608;49.486;9.640;2022-12-18T00:43:21;100062.66;;;-13.59;76.04
57779;BME280;43608;49.486;9.640;2022-12-18T00:43:52;100037.78;;;-13.69;76.18
57779;BME280;43608;49.486;9.640;2022-12-18T00:44:22;100052.13;;;-13.62;75.77
57779;BME280;43608;49.486;9.640;2022-12-18T00:44:53;100052.28;;;-13.60;76.02
57779;BME280;43608;49.486;9.640;2022-12-18T00:45:25;100047.19;;;-13.60;76.15
57779;BME280;43608;49.486;9.640;2022-12-18T00:45:55;100048.84;;;-13.61;75.59
57779;BME280;43608;49.486;9.640;2022-12-18T00:46:26;100063.00;;;-13.56;76.16
57779;BME280;43608;49.486;9.640;2022-12-18T00:46:56;100055.94;;;-13.58;76.06
57779;BME280;43608;49.486;9.640;2022-12-18T00:47:26;100039.22;;;-13.64;75.83
57779;BME280;43608;49.486;9.640;2022-12-18T00:47:57;100045.19;;;-13.63;75.65
57779;BME280;43608;49.486;9.640;2022-12-18T00:48:27;100044.47;;;-13.62;75.72
57779;BME280;43608;49.486;9.640;2022-12-18T00:48:58;100057.75;;;-13.57;75.96
57779;BME280;43608;49.486;9.640;2022-12-18T00:49:29;100058.63;;;-13.57;75.82
57779;BME280;43608;49.486;9.640;2022-12-18T00:49:59;100045.19;;;-13.63;75.86
57779;BME280;43608;49.486;9.640;2022-12-18T00:50:29;100051.22;;;-13.63;75.85
57779;BME280;43608;49.486;9.640;2022-12-18T00:51:00;100034.88;;;-13.72;76.23
57779;BME280;43608;49.486;9.640;2022-12-18T00:51:30;100046.84;;;-13.64;76.10
57779;BME280;43608;49.486;9.640;2022-12-18T00:52:00;100057.38;;;-13.60;75.72
57779;BME280;43608;49.486;9.640;2022-12-18T00:52:31;100050.28;;;-13.63;75.91
57779;BME280;43608;49.486;9.640;2022-12-18T00:53:01;100057.56;;;-13.59;76.18
57779;BME280;43608;49.486;9.640;2022-12-18T00:53:32;100055.41;;;-13.63;75.78
57779;BME280;43608;49.486;9.640;2022-12-18T00:54:03;100043.94;;;-13.67;75.87
57779;BME280;43608;49.486;9.640;2022-12-18T00:54:33;100057.94;;;-13.63;76.38
57779;BME280;43608;49.486;9.640;2022-12-18T00:55:04;100042.72;;;-13.70;75.68
57779;BME280;43608;49.486;9.640;2022-12-18T00:55:35;100069.41;;;-13.59;75.59
57779;BME280;43608;49.486;9.640;2022-12-18T00:56:07;100014.25;;;-13.89;76.03
57779;BME280;43608;49.486;9.640;2022-12-18T00:56:38;100069.25;;;-13.61;75.74
57779;BME280;43608;49.486;9.640;2022-12-18T00:57:08;100057.25;;;-13.69;76.17
57779;BME280;43608;49.486;9.640;2022-12-18T00:57:39;100039.88;;;-13.81;76.03
57779;BME280;43608;49.486;9.640;2022-12-18T00:58:10;100076.16;;;-13.60;75.88
57779;BME280;43608;49.486;9.640;2022-12-18T00:58:41;100045.63;;;-13.74;76.33
57779;BME280;43608;49.486;9.640;2022-12-18T00:59:11;100046.19;;;-13.77;76.17
57779;BME280;43608;49.486;9.640;2022-12-18T00:59:41;100042.03;;;-13.76;76.16
57779;BME280;43608;49.486;9.640;2022-12-18T01:00:14;100062.47;;;-13.60;76.03
57779;BME280;43608;49.486;9.640;2022-12-18T01:00:45;100061.06;;;-13.66;75.62
57779;BME280;43608;49.486;9.640;2022-12-18T01:01:15;100020.75;;;-13.84;76.00
57779;BME280;43608;49.486;9.640;2022-12-18T01:01:46;100062.47;;;-13.60;75.95
57779;BME280;43608;49.486;9.640;2022-12-18T01:02:16;100056.88;;;-13.65;75.70
57779;BME280;43608;49.486;9.640;2022-12-18T01:02:47;99973.44;;;-14.13;75.73
57779;BME280;43608;49.486;9.640;2022-12-18T01:03:18;100051.78;;;-13.65;75.57
57779;BME280;43608;49.486;9.640;2022-12-18T01:03:48;100057.06;;;-13.64;75.74
57779;BME280;43608;49.486;9.640;2022-12-18T01:04:19;100040.16;;;-13.70;75.78
57779;BME280;43608;49.486;9.640;2022-12-18T01:04:49;100049.81;;;-13.68;76.11
57779;BME280;43608;49.486;9.640;2022-12-18T01:05:20;100059.03;;;-13.61;76.34
57779;BME280;43608;49.486;9.640;2022-12-18T01:05:50;100050.88;;;-13.66;75.77
57779;BME280;43608;49.486;9.640;2022-12-18T01:06:21;100053.41;;;-13.66;76.18
57779;BME280;43608;49.486;9.640;2022-12-18T01:06:51;100050.13;;;-13.65;75.74
57779;BME280;43608;49.486;9.640;2022-12-18T01:07:21;100034.53;;;-13.75;75.72
57779;BME280;43608;49.486;9.640;2022-12-18T01:07:52;100022.03;;;-13.81;75.75
57779;BME280;43608;49.486;9.640;2022-12-18T01:08:22;100046.00;;;-13.71;75.74
57779;BME280;43608;49.486;9.640;2022-12-18T01:08:53;100048.31;;;-13.66;75.57
57779;BME280;43608;49.486;9.640;2022-12-18T01:09:23;100067.41;;;-13.62;75.99
57779;BME280;43608;49.486;9.640;2022-12-18T01:09:54;100051.78;;;-13.65;76.14
57779;BME280;43608;49.486;9.640;2022-12-18T01:10:24;100072.84;;;-13.59;76.34
57779;BME280;43608;49.486;9.640;2022-12-18T01:10:55;100061.59;;;-13.61;76.57
57779;BME280;43608;49.486;9.640;2022-12-18T01:11:26;100037.41;;;-13.72;76.25
57779;BME280;43608;49.486;9.640;2022-12-18T01:11:56;100067.03;;;-13.58;75.74
57779;BME280;43608;49.486;9.640;2022-12-18T01:12:26;100043.44;;;-13.71;75.88
57779;BME280;43608;49.486;9.640;2022-12-18T01:12:57;100061.91;;;-13.58;76.58
57779;BME280;43608;49.486;9.640;2022-12-18T01:13:27;100056.34;;;-13.70;75.90
57779;BME280;43608;49.486;9.640;2022-12-18T01:13:58;100050.88;;;-13.66;76.25
57779;BME280;43608;49.486;9.640;2022-12-18T01:14:28;100051.59;;;-13.67;76.08
57779;BME280;43608;49.486;9.640;2022-12-18T01:14:58;100002.78;;;-13.93;75.78
57779;BME280;43608;49.486;9.640;2022-12-18T01:15:29;100060.50;;;-13.63;76.49
57779;BME280;43608;49.486;9.640;2022-12-18T01:15:59;100067.94;;;-13.57;76.05
57779;BME280;43608;49.486;9.640;2022-12-18T01:16:29;100045.25;;;-13.70;75.92
57779;BME280;43608;49.486;9.640;2022-12-18T01:17:00;100068.69;;;-13.58;75.83
57779;BME280;43608;49.486;9.640;2022-12-18T01:17:33;100070.13;;;-13.60;76.41
57779;BME280;43608;49.486;9.640;2022-12-18T01:18:05;100069.97;;;-13.62;76.42
57779;BME280;43608;49.486;9.640;2022-12-18T01:18:35;100051.81;;;-13.72;76.13
57779;BME280;43608;49.486;9.640;2022-12-18T01:19:06;100055.22;;;-13.65;76.08
57779;BME280;43608;49.486;9.640;2022-12-18T01:19:36;100028.25;;;-13.86;76.01
57779;BME280;43608;49.486;9.640;2022-12-18T01:20:07;100026.97;;;-13.82;76.03
57779;BME280;43608;49.486;9.640;2022-12-18T01:20:38;100066.88;;;-13.67;75.75
57779;BME280;43608;49.486;9.640;2022-12-18T01:21:11;100075.97;;;-13.62;76.23
57779;BME280;43608;49.486;9.640;2022-12-18T01:21:41;100045.13;;;-13.79;75.94
57779;BME280;43608;49.486;9.640;2022-12-18T01:22:12;100070.88;;;-13.62;76.25
57779;BME280;43608;49.486;9.640;2022-12-18T01:22:42;100020.78;;;-13.91;75.90
57779;BME280;43608;49.486;9.640;2022-12-18T01:23:12;100063.09;;;-13.70;76.22
57779;BME280;43608;49.486;9.640;2022-12-18T01:23:43;100066.38;;;-13.71;76.33
57779;BME280;43608;49.486;9.640;2022-12-18T01:24:13;100075.28;;;-13.68;75.88
57779;BME280;43608;49.486;9.640;2022-12-18T01:24:44;100057.66;;;-13.73;75.98
57779;BME280;43608;49.486;9.640;2022-12-18T01:25:14;100044.25;;;-13.87;76.21
57779;BME280;43608;49.486;9.640;2022-12-18T01:25:44;100064.41;;;-13.74;76.36
57779;BME280;43608;49.486;9.640;2022-12-18T01:26:15;100042.97;;;-13.83;76.16
57779;BME280;43608;49.486;9.640;2022-12-18T01:26:46;100078.00;;;-13.66;76.57
57779;BME280;43608;49.486;9.640;2022-12-18T01:27:16;100063.47;;;-13.74;76.40
57779;BME280;43608;49.486;9.640;2022-12-18T01:27:47;100039.16;;;-13.87;76.22
57779;BME280;43608;49.486;9.640;2022-12-18T01:28:17;100060.03;;;-13.75;76.37
57779;BME280;43608;49.486;9.640;2022-12-18T01:28:47;100049.91;;;-13.82;76.53
57779;BME280;43608;49.486;9.640;2022-12-18T01:29:18;100015.59;;;-14.00;76.30
57779;BME280;43608;49.486;9.640;2022-12-18T01:29:49;100077.09;;;-13.67;76.24
57779;BME280;43608;49.486;9.640;2022-12-18T01:30:19;100072.75;;;-13.68;76.57
57779;BME280;43608;49.486;9.640;2022-12-18T01:30:50;100080.41;;;-13.68;76.36
57779;BME280;43608;49.486;9.640;2022-12-18T01:31:23;100034.63;;;-13.89;76.38
57779;BME280;43608;49.486;9.640;2022-12-18T01:31:55;100071.09;;;-13.67;76.31
57779;BME280;43608;49.486;9.640;2022-12-18T01:32:26;100031.75;;;-13.92;76.56
57779;BME280;43608;49.486;9.640;2022-12-18T01:32:56;100013.94;;;-14.00;76.64
57779;BME280;43608;49.486;9.640;2022-12-18T01:33:26;100068.00;;;-13.72;75.86
57779;BME280;43608;49.486;9.640;2022-12-18T01:33:57;100074.53;;;-13.67;76.26
57779;BME280;43608;49.486;9.640;2022-12-18T01:34:30;100040.63;;;-13.89;76.06
57779;BME280;43608;49.486;9.640;2022-12-18T01:35:00;100076.19;;;-13.67;75.81
57779;BME280;43608;49.486;9.640;2022-12-18T01:35:31;100078.75;;;-13.67;76.54
57779;BME280;43608;49.486;9.640;2022-12-18T01:36:01;100084.72;;;-13.67;76.03
57779;BME280;43608;49.486;9.640;2022-12-18T01:36:34;100083.84;;;-13.67;76.24
57779;BME280;43608;49.486;9.640;2022-12-18T01:37:05;100046.47;;;-13.90;76.13
57779;BME280;43608;49.486;9.640;2022-12-18T01:37:35;100062.28;;;-13.85;76.24
57779;BME280;43608;49.486;9.640;2022-12-18T01:38:06;100079.69;;;-13.74;76.17
57779;BME280;43608;49.486;9.640;2022-12-18T01:38:36;100070.28;;;-13.82;75.80
57779;BME280;43608;49.486;9.640;2022-12-18T01:39:11;100056.13;;;-13.87;76.49
57779;BME280;43608;49.486;9.640;2022-12-18T01:39:42;100082.41;;;-13.72;76.50
57779;BME280;43608;49.486;9.640;2022-12-18T01:40:12;100070.94;;;-13.76;76.26
57779;BME280;43608;49.486;9.640;2022-12-18T01:40:43;100078.44;;;-13.77;76.10
57779;BME280;43608;49.486;9.640;2022-12-18T01:41:15;100089.66;;;-13.68;75.88
57779;BME280;43608;49.486;9.640;2022-12-18T01:41:46;100070.94;;;-13.76;76.37
57779;BME280;43608;49.486;9.640;2022-12-18T01:42:32;100077.16;;;-13.74;76.34
57779;BME280;43608;49.486;9.640;2022-12-18T01:43:02;100042.66;;;-13.93;76.29
57779;BME280;43608;49.486;9.640;2022-12-18T01:43:55;100086.22;;;-13.69;75.95
57779;BME280;43608;49.486;9.640;2022-12-18T01:45:46;100067.69;;;-13.75;76.41
57779;BME280;43608;49.486;9.640;2022-12-18T01:46:18;99951.19;;;-14.37;75.99
57779;BME280;43608;49.486;9.640;2022-12-18T01:46:49;100040.28;;;-13.92;76.46
57779;BME280;43608;49.486;9.640;2022-12-18T01:47:33;100070.22;;;-13.75;76.28
57779;BME280;43608;49.486;9.640;2022-12-18T01:48:06;100062.81;;;-13.81;75.96
57779;BME280;43608;49.486;9.640;2022-12-18T01:48:39;100056.78;;;-13.81;76.38
57779;BME280;43608;49.486;9.640;2022-12-18T01:49:10;100078.03;;;-13.73;75.88
57779;BME280;43608;49.486;9.640;2022-12-18T01:49:41;100016.88;;;-14.04;76.43
57779;BME280;43608;49.486;9.640;2022-12-18T01:50:16;100078.22;;;-13.72;76.26
57779;BME280;43608;49.486;9.640;2022-12-18T01:50:47;100063.69;;;-13.80;76.00
57779;BME280;43608;49.486;9.640;2022-12-18T01:51:18;100071.13;;;-13.74;76.56
57779;BME280;43608;49.486;9.640;2022-12-18T01:51:48;100060.28;;;-13.88;76.44
57779;BME280;43608;49.486;9.640;2022-12-18T01:52:20;100079.84;;;-13.72;76.08
57779;BME280;43608;49.486;9.640;2022-12-18T01:52:53;100072.44;;;-13.78;76.23
57779;BME280;43608;49.486;9.640;2022-12-18T01:53:25;100067.75;;;-13.82;76.61
57779;BME280;43608;49.486;9.640;2022-12-18T01:53:56;100044.28;;;-13.94;76.27
57779;BME280;43608;49.486;9.640;2022-12-18T01:54:27;100045.22;;;-13.93;76.43
57779;BME280;43608;49.486;9.640;2022-12-18T01:54:59;100041.56;;;-13.96;76.00
57779;BME280;43608;49.486;9.640;2022-12-18T01:55:35;100062.97;;;-13.79;76.39
57779;BME280;43608;49.486;9.640;2022-12-18T01:56:08;100076.22;;;-13.74;76.39
57779;BME280;43608;49.486;9.640;2022-12-18T01:56:39;100060.44;;;-13.86;76.22
57779;BME280;43608;49.486;9.640;2022-12-18T01:57:09;100070.63;;;-13.79;76.41
57779;BME280;43608;49.486;9.640;2022-12-18T01:57:40;100076.97;;;-13.75;76.23
57779;BME280;43608;49.486;9.640;2022-12-18T01:58:11;100076.97;;;-13.75;76.71
57779;BME280;43608;49.486;9.640;2022-12-18T01:58:52;100041.41;;;-13.97;76.76
57779;BME280;43608;49.486;9.640;2022-12-18T01:59:24;100050.81;;;-13.89;76.31
57779;BME280;43608;49.486;9.640;2022-12-18T02:00:00;100058.81;;;-13.86;76.60
57779;BME280;43608;49.486;9.640;2022-12-18T02:00:32;100057.00;;;-13.87;76.66
57779;BME280;43608;49.486;9.640;2022-12-18T02:01:03;100079.31;;;-13.77;76.24
57779;BME280;43608;49.486;9.640;2022-12-18T02:01:34;100078.44;;;-13.77;76.61
57779;BME280;43608;49.486;9.640;2022-12-18T02:02:07;100040.31;;;-13.99;76.44
57779;BME280;43608;49.486;9.640;2022-12-18T02:02:39;100073.16;;;-13.79;76.44
57779;BME280;43608;49.486;9.640;2022-12-18T02:03:10;100079.16;;;-13.79;76.28
57779;BME280;43608;49.486;9.640;2022-12-18T02:03:44;100051.22;;;-13.93;76.75
57779;BME280;43608;49.486;9.640;2022-12-18T02:04:25;100083.38;;;-13.79;76.19
57779;BME280;43608;49.486;9.640;2022-12-18T02:04:56;100068.09;;;-13.86;76.30
57779;BME280;43608;49.486;9.640;2022-12-18T02:06:40;100052.69;;;-13.95;76.37
57779;BME280;43608;49.486;9.640;2022-12-18T02:08:45;100071.91;;;-13.83;75.97
57779;BME280;43608;49.486;9.640;2022-12-18T02:09:22;100080.28;;;-13.84;76.02
57779;BME280;43608;49.486;9.640;2022-12-18T02:10:09;100075.19;;;-13.84;76.42
57779;BME280;43608;49.486;9.640;2022-12-18T02:11:04;100075.00;;;-13.85;76.17
57779;BME280;43608;49.486;9.640;2022-12-18T02:13:05;100074.50;;;-13.90;75.82
57779;BME280;43608;49.486;9.640;2022-12-18T02:13:51;100077.41;;;-13.87;76.23
57779;BME280;43608;49.486;9.640;2022-12-18T02:15:06;100076.50;;;-13.87;75.93
57779;BME280;43608;49.486;9.640;2022-12-18T02:15:59;100070.16;;;-13.91;76.20
57779;BME280;43608;49.486;9.640;2022-12-18T02:16:45;100078.84;;;-13.89;75.80
57779;BME280;43608;49.486;9.640;2022-12-18T02:17:22;100078.84;;;-13.89;75.89
57779;BME280;43608;49.486;9.640;2022-12-18T02:18:22;100072.69;;;-13.91;75.71
57779;BME280;43608;49.486;9.640;2022-12-18T02:18:59;100073.25;;;-13.93;75.98
57779;BME280;43608;49.486;9.640;2022-12-18T02:20:45;100076.13;;;-13.90;76.21
57779;BME280;43608;49.486;9.640;2022-12-18T02:22:26;100079.25;;;-13.93;76.59
57779;BME280;43608;49.486;9.640;2022-12-18T02:27:01;100085.06;;;-13.94;76.31
57779;BME280;43608;49.486;9.640;2022-12-18T02:27:34;100089.25;;;-13.94;76.39
57779;BME280;43608;49.486;9.640;2022-12-18T02:28:10;100068.56;;;-14.05;76.21
57779;BME280;43608;49.486;9.640;2022-12-18T02:28:57;100043.88;;;-14.20;76.20
57779;BME280;43608;49.486;9.640;2022-12-18T02:29:39;100084.00;;;-13.96;76.32
57779;BME280;43608;49.486;9.640;2022-12-18T02:30:10;100053.34;;;-14.12;76.45
57779;BME280;43608;49.486;9.640;2022-12-18T02:30:42;100083.84;;;-13.98;76.61
57779;BME280;43608;49.486;9.640;2022-12-18T02:31:24;100082.00;;;-13.99;76.39
57779;BME280;43608;49.486;9.640;2022-12-18T02:31:57;100058.75;;;-14.09;76.49
57779;BME280;43608;49.486;9.640;2022-12-18T02:32:37;100039.34;;;-14.23;76.79
57779;BME280;43608;49.486;9.640;2022-12-18T02:33:09;100078.53;;;-13.99;76.46
57779;BME280;43608;49.486;9.640;2022-12-18T02:33:43;100060.59;;;-14.15;76.46
57779;BME280;43608;49.486;9.640;2022-12-18T02:34:16;100070.22;;;-14.05;76.41
57779;BME280;43608;49.486;9.640;2022-12-18T02:34:49;100047.72;;;-14.24;76.92
57779;BME280;43608;49.486;9.640;2022-12-18T02:35:23;100060.97;;;-14.12;76.71
57779;BME280;43608;49.486;9.640;2022-12-18T02:35:56;100084.19;;;-14.02;76.58
57779;BME280;43608;49.486;9.640;2022-12-18T02:36:28;100085.84;;;-14.02;76.38
57779;BME280;43608;49.486;9.640;2022-12-18T02:37:02;100046.03;;;-14.16;76.55
57779;BME280;43608;49.486;9.640;2022-12-18T02:37:35;100084.19;;;-14.02;76.64
57779;BME280;43608;49.486;9.640;2022-12-18T02:38:07;100063.13;;;-14.08;76.52
57779;BME280;43608;49.486;9.640;2022-12-18T02:38:38;100054.94;;;-14.13;77.11
57779;BME280;43608;49.486;9.640;2022-12-18T02:39:11;100066.19;;;-14.03;77.03
57779;BME280;43608;49.486;9.640;2022-12-18T02:39:44;100066.19;;;-14.03;76.66
57779;BME280;43608;49.486;9.640;2022-12-18T02:40:17;100062.56;;;-14.05;77.05
57779;BME280;43608;49.486;9.640;2022-12-18T02:40:49;100061.66;;;-14.06;76.94
57779;BME280;43608;49.486;9.640;2022-12-18T02:41:20;100063.81;;;-14.02;76.81
57779;BME280;43608;49.486;9.640;2022-12-18T02:41:52;100072.22;;;-14.03;76.90
57779;BME280;43608;49.486;9.640;2022-12-18T02:42:22;100048.78;;;-14.15;76.52
57779;BME280;43608;49.486;9.640;2022-12-18T02:42:54;100032.97;;;-14.19;76.70
57779;BME280;43608;49.486;9.640;2022-12-18T02:43:24;100050.78;;;-14.12;77.15
57779;BME280;43608;49.486;9.640;2022-12-18T02:43:57;100050.59;;;-14.14;77.08
57779;BME280;43608;49.486;9.640;2022-12-18T02:44:28;100077.47;;;-14.01;76.73
57779;BME280;43608;49.486;9.640;2022-12-18T02:44:58;100068.56;;;-14.05;77.17
57779;BME280;43608;49.486;9.640;2022-12-18T02:45:29;100060.75;;;-14.06;77.16
57779;BME280;43608;49.486;9.640;2022-12-18T02:46:00;100061.66;;;-14.06;77.04
57779;BME280;43608;49.486;9.640;2022-12-18T02:46:52;100076.53;;;-14.02;77.06
57779;BME280;43608;49.486;9.640;2022-12-18T02:47:25;100055.50;;;-14.15;77.01
57779;BME280;43608;49.486;9.640;2022-12-18T02:47:58;100064.03;;;-14.07;76.93
57779;BME280;43608;49.486;9.640;2022-12-18T02:48:33;100077.47;;;-14.01;77.14
57779;BME280;43608;49.486;9.640;2022-12-18T02:49:31;100070.56;;;-14.02;76.90
57779;BME280;43608;49.486;9.640;2022-12-18T02:53:26;100086.22;;;-14.06;76.93
57779;BME280;43608;49.486;9.640;2022-12-18T02:54:06;100042.28;;;-14.34;76.96
57779;BME280;43608;49.486;9.640;2022-12-18T02:56:26;100095.31;;;-14.08;76.74
57779;BME280;43608;49.486;9.640;2022-12-18T02:57:11;100077.56;;;-14.23;76.41
57779;BME280;43608;49.486;9.640;2022-12-18T02:59:15;100091.00;;;-14.17;76.81
57779;BME280;43608;49.486;9.640;2022-12-18T02:59:56;100094.09;;;-14.12;76.55
57779;BME280;43608;49.486;9.640;2022-12-18T03:03:55;100085.00;;;-14.17;76.85
57779;BME280;43608;49.486;9.640;2022-12-18T03:04:36;100082.47;;;-14.17;76.61
57779;BME280;43608;49.486;9.640;2022-12-18T03:05:15;100079.53;;;-14.20;76.62
57779;BME280;43608;49.486;9.640;2022-12-18T03:05:50;100083.19;;;-14.18;76.57
57779;BME280;43608;49.486;9.640;2022-12-18T03:06:30;100075.00;;;-14.23;76.85
57779;BME280;43608;49.486;9.640;2022-12-18T03:07:05;100076.84;;;-14.22;76.26
57779;BME280;43608;49.486;9.640;2022-12-18T03:07:42;100079.53;;;-14.20;76.90
57779;BME280;43608;49.486;9.640;2022-12-18T03:08:26;100065.03;;;-14.29;76.65
57779;BME280;43608;49.486;9.640;2022-12-18T03:09:10;100062.69;;;-14.34;77.17
57779;BME280;43608;49.486;9.640;2022-12-18T03:09:46;100076.66;;;-14.23;76.85
57779;BME280;43608;49.486;9.640;2022-12-18T03:10:23;100069.19;;;-14.29;76.82
57779;BME280;43608;49.486;9.640;2022-12-18T03:11:04;100053.09;;;-14.44;76.79
57779;BME280;43608;49.486;9.640;2022-12-18T03:11:38;100079.59;;;-14.27;76.41
57779;BME280;43608;49.486;9.640;2022-12-18T03:12:35;100084.84;;;-14.26;76.64